sensor_id;sensor_type;location;lat;lon;timestamp;P1;durP1;ratioP1;P2;durP2;ratioP2
52618;SDS011;38513;53.234;6.568;2022-09-09T00:00:52;21.47;;;12.20;;
52618;SDS011;38513;53.234;6.568;2022-09-09T00:03:23;16.15;;;11.35;;
52618;SDS011;38513;53.234;6.568;2022-09-09T00:08:45;20.25;;;12.38;;
52618;SDS011;38513;53.234;6.568;2022-09-09T00:11:17;19.87;;;12.97;;
52618;SDS011;38513;53.234;6.568;2022-09-09T00:13:48;18.50;;;12.52;;
52618;SDS011;38513;53.234;6.568;2022-09-09T00:16:17;19.42;;;12.75;;
52618;SDS011;38513;53.234;6.568;2022-09-09T00:21:17;20.38;;;12.98;;
52618;SDS011;38513;53.234;6.568;2022-09-09T00:23:48;21.10;;;13.25;;
52618;SDS011;38513;53.234;6.568;2022-09-09T00:28:48;21.30;;;13.45;;
52618;SDS011;38513;53.234;6.568;2022-09-09T00:31:18;19.67;;;13.43;;
52618;SDS011;38513;53.234;6.568;2022-09-09T00:33:46;18.48;;;13.15;;
52618;SDS011;38513;53.234;6.568;2022-09-09T00:36:14;19.90;;;12.70;;
52618;SDS011;38513;53.234;6.568;2022-09-09T00:38:45;19.40;;;12.80;;
52618;SDS011;38513;53.234;6.568;2022-09-09T00:43:55;17.83;;;12.38;;
52618;SDS011;38513;53.234;6.568;2022-09-09T00:46:31;18.08;;;12.43;;
52618;SDS011;38513;53.234;6.568;2022-09-09T00:51:57;20.10;;;12.70;;
52618;SDS011;38513;53.234;6.568;2022-09-09T01:02:21;17.15;;;11.07;;
52618;SDS011;38513;53.234;6.568;2022-09-09T01:04:53;16.30;;;10.90;;
52618;SDS011;38513;53.234;6.568;2022-09-09T01:07:19;15.77;;;9.90;;
52618;SDS011;38513;53.234;6.568;2022-09-09T01:12:35;16.33;;;10.50;;
52618;SDS011;38513;53.234;6.568;2022-09-09T01:15:08;15.25;;;9.48;;
52618;SDS011;38513;53.234;6.568;2022-09-09T01:28:07;15.32;;;10.00;;
52618;SDS011;38513;53.234;6.568;2022-09-09T01:30:37;12.98;;;9.35;;
52618;SDS011;38513;53.234;6.568;2022-09-09T01:33:04;13.30;;;9.70;;
52618;SDS011;38513;53.234;6.568;2022-09-09T01:35:45;16.40;;;9.88;;
52618;SDS011;38513;53.234;6.568;2022-09-09T01:38:13;15.55;;;9.90;;
52618;SDS011;38513;53.234;6.568;2022-09-09T01:40:40;14.60;;;9.53;;
52618;SDS011;38513;53.234;6.568;2022-09-09T01:43:06;13.10;;;8.90;;
52618;SDS011;38513;53.234;6.568;2022-09-09T01:45:33;15.40;;;8.60;;
52618;SDS011;38513;53.234;6.568;2022-09-09T01:47:59;14.02;;;8.63;;
52618;SDS011;38513;53.234;6.568;2022-09-09T01:50:27;14.38;;;8.77;;
52618;SDS011;38513;53.234;6.568;2022-09-09T01:52:56;13.63;;;8.27;;
52618;SDS011;38513;53.234;6.568;2022-09-09T01:55:28;12.65;;;8.27;;
52618;SDS011;38513;53.234;6.568;2022-09-09T02:00:41;14.02;;;9.05;;
52618;SDS011;38513;53.234;6.568;2022-09-09T02:03:08;13.27;;;9.02;;
52618;SDS011;38513;53.234;6.568;2022-09-09T02:05:39;15.05;;;9.40;;
52618;SDS011;38513;53.234;6.568;2022-09-09T02:08:17;15.00;;;9.77;;
52618;SDS011;38513;53.234;6.568;2022-09-09T02:13:16;15.50;;;10.20;;
52618;SDS011;38513;53.234;6.568;2022-09-09T02:15:52;16.35;;;10.77;;
52618;SDS011;38513;53.234;6.568;2022-09-09T02:18:20;16.17;;;10.80;;
52618;SDS011;38513;53.234;6.568;2022-09-09T02:20:48;17.00;;;11.40;;
52618;SDS011;38513;53.234;6.568;2022-09-09T02:23:16;15.98;;;11.27;;
52618;SDS011;38513;53.234;6.568;2022-09-09T02:25:43;18.75;;;11.85;;
52618;SDS011;38513;53.234;6.568;2022-09-09T02:28:11;17.98;;;12.20;;
52618;SDS011;38513;53.234;6.568;2022-09-09T02:30:39;18.15;;;12.95;;
52618;SDS011;38513;53.234;6.568;2022-09-09T02:33:06;18.05;;;12.80;;
52618;SDS011;38513;53.234;6.568;2022-09-09T02:35:35;18.63;;;13.30;;
52618;SDS011;38513;53.234;6.568;2022-09-09T02:38:05;19.67;;;14.10;;
52618;SDS011;38513;53.234;6.568;2022-09-09T02:40:33;22.20;;;13.60;;
52618;SDS011;38513;53.234;6.568;2022-09-09T02:42:59;20.35;;;14.15;;
52618;SDS011;38513;53.234;6.568;2022-09-09T02:45:36;20.88;;;13.70;;
52618;SDS011;38513;53.234;6.568;2022-09-09T02:50:57;19.58;;;14.57;;
52618;SDS011;38513;53.234;6.568;2022-09-09T02:53:39;18.38;;;13.85;;
52618;SDS011;38513;53.234;6.568;2022-09-09T02:56:13;21.40;;;13.60;;
52618;SDS011;38513;53.234;6.568;2022-09-09T02:58:41;20.00;;;13.70;;
52618;SDS011;38513;53.234;6.568;2022-09-09T03:01:08;20.03;;;12.33;;
52618;SDS011;38513;53.234;6.568;2022-09-09T03:03:34;19.38;;;13.27;;
52618;SDS011;38513;53.234;6.568;2022-09-09T03:06:01;22.97;;;13.07;;
52618;SDS011;38513;53.234;6.568;2022-09-09T03:08:27;18.73;;;12.98;;
52618;SDS011;38513;53.234;6.568;2022-09-09T03:10:54;18.40;;;13.02;;
52618;SDS011;38513;53.234;6.568;2022-09-09T03:13:23;18.88;;;13.00;;
52618;SDS011;38513;53.234;6.568;2022-09-09T03:15:56;18.02;;;13.00;;
52618;SDS011;38513;53.234;6.568;2022-09-09T03:18:22;17.92;;;12.35;;
52618;SDS011;38513;53.234;6.568;2022-09-09T03:20:48;18.83;;;12.40;;
52618;SDS011;38513;53.234;6.568;2022-09-09T03:23:14;18.13;;;12.43;;
52618;SDS011;38513;53.234;6.568;2022-09-09T03:25:46;18.10;;;12.10;;
52618;SDS011;38513;53.234;6.568;2022-09-09T03:28:12;18.13;;;12.27;;
52618;SDS011;38513;53.234;6.568;2022-09-09T03:30:38;17.63;;;11.52;;
52618;SDS011;38513;53.234;6.568;2022-09-09T03:33:04;16.00;;;11.02;;
52618;SDS011;38513;53.234;6.568;2022-09-09T03:35:31;19.58;;;11.07;;
52618;SDS011;38513;53.234;6.568;2022-09-09T03:37:57;15.80;;;10.73;;
52618;SDS011;38513;53.234;6.568;2022-09-09T03:40:24;16.50;;;10.80;;
52618;SDS011;38513;53.234;6.568;2022-09-09T03:42:50;19.25;;;10.85;;
52618;SDS011;38513;53.234;6.568;2022-09-09T03:45:16;15.00;;;9.82;;
52618;SDS011;38513;53.234;6.568;2022-09-09T03:47:42;15.27;;;10.30;;
52618;SDS011;38513;53.234;6.568;2022-09-09T03:50:09;14.37;;;9.53;;
52618;SDS011;38513;53.234;6.568;2022-09-09T03:52:39;13.90;;;8.93;;
52618;SDS011;38513;53.234;6.568;2022-09-09T03:55:06;15.98;;;8.38;;
52618;SDS011;38513;53.234;6.568;2022-09-09T03:57:34;16.00;;;7.40;;
52618;SDS011;38513;53.234;6.568;2022-09-09T04:00:04;14.55;;;7.55;;
52618;SDS011;38513;53.234;6.568;2022-09-09T04:02:31;11.60;;;5.97;;
52618;SDS011;38513;53.234;6.568;2022-09-09T04:04:57;12.53;;;6.23;;
52618;SDS011;38513;53.234;6.568;2022-09-09T04:07:24;11.02;;;6.20;;
52618;SDS011;38513;53.234;6.568;2022-09-09T04:09:52;11.50;;;5.53;;
52618;SDS011;38513;53.234;6.568;2022-09-09T04:12:19;11.23;;;5.30;;
52618;SDS011;38513;53.234;6.568;2022-09-09T04:14:47;9.60;;;4.97;;
52618;SDS011;38513;53.234;6.568;2022-09-09T04:17:16;10.98;;;4.68;;
52618;SDS011;38513;53.234;6.568;2022-09-09T04:19:42;11.97;;;4.70;;
52618;SDS011;38513;53.234;6.568;2022-09-09T04:22:08;11.18;;;4.80;;
52618;SDS011;38513;53.234;6.568;2022-09-09T04:24:34;8.93;;;4.30;;
52618;SDS011;38513;53.234;6.568;2022-09-09T04:27:00;12.23;;;4.45;;
52618;SDS011;38513;53.234;6.568;2022-09-09T04:29:27;10.82;;;4.28;;
52618;SDS011;38513;53.234;6.568;2022-09-09T04:31:53;9.90;;;4.00;;
52618;SDS011;38513;53.234;6.568;2022-09-09T04:34:19;14.07;;;5.13;;
52618;SDS011;38513;53.234;6.568;2022-09-09T04:36:48;11.18;;;4.25;;
52618;SDS011;38513;53.234;6.568;2022-09-09T04:39:16;9.90;;;4.63;;
52618;SDS011;38513;53.234;6.568;2022-09-09T04:41:43;12.13;;;4.53;;
52618;SDS011;38513;53.234;6.568;2022-09-09T04:44:12;9.23;;;4.00;;
52618;SDS011;38513;53.234;6.568;2022-09-09T04:46:41;10.52;;;4.93;;
52618;SDS011;38513;53.234;6.568;2022-09-09T04:49:10;11.63;;;4.63;;
52618;SDS011;38513;53.234;6.568;2022-09-09T04:51:36;11.43;;;4.82;;
52618;SDS011;38513;53.234;6.568;2022-09-09T04:54:02;10.10;;;5.05;;
52618;SDS011;38513;53.234;6.568;2022-09-09T04:56:34;9.48;;;5.03;;
52618;SDS011;38513;53.234;6.568;2022-09-09T04:59:04;10.85;;;5.32;;
52618;SDS011;38513;53.234;6.568;2022-09-09T05:01:30;12.45;;;5.68;;
52618;SDS011;38513;53.234;6.568;2022-09-09T05:04:03;12.25;;;5.82;;
52618;SDS011;38513;53.234;6.568;2022-09-09T05:06:31;11.20;;;6.30;;
52618;SDS011;38513;53.234;6.568;2022-09-09T05:08:58;13.80;;;6.00;;
52618;SDS011;38513;53.234;6.568;2022-09-09T05:11:27;11.27;;;6.35;;
52618;SDS011;38513;53.234;6.568;2022-09-09T05:17:04;12.70;;;7.40;;
52618;SDS011;38513;53.234;6.568;2022-09-09T05:24:53;14.77;;;8.00;;
52618;SDS011;38513;53.234;6.568;2022-09-09T05:27:19;15.13;;;8.25;;
52618;SDS011;38513;53.234;6.568;2022-09-09T05:32:34;14.82;;;9.18;;
52618;SDS011;38513;53.234;6.568;2022-09-09T05:35:04;15.87;;;9.00;;
52618;SDS011;38513;53.234;6.568;2022-09-09T05:37:33;15.50;;;9.33;;
52618;SDS011;38513;53.234;6.568;2022-09-09T05:40:03;16.53;;;9.83;;
52618;SDS011;38513;53.234;6.568;2022-09-09T05:42:31;15.07;;;9.70;;
52618;SDS011;38513;53.234;6.568;2022-09-09T05:44:58;15.43;;;10.17;;
52618;SDS011;38513;53.234;6.568;2022-09-09T05:47:24;16.23;;;10.20;;
52618;SDS011;38513;53.234;6.568;2022-09-09T05:49:53;16.60;;;10.20;;
52618;SDS011;38513;53.234;6.568;2022-09-09T05:52:19;15.80;;;10.85;;
52618;SDS011;38513;53.234;6.568;2022-09-09T05:54:48;16.77;;;10.77;;
52618;SDS011;38513;53.234;6.568;2022-09-09T05:57:14;16.70;;;10.80;;
52618;SDS011;38513;53.234;6.568;2022-09-09T05:59:40;19.47;;;11.40;;
52618;SDS011;38513;53.234;6.568;2022-09-09T06:02:09;18.08;;;11.07;;
52618;SDS011;38513;53.234;6.568;2022-09-09T06:04:35;17.57;;;11.87;;
52618;SDS011;38513;53.234;6.568;2022-09-09T06:07:05;18.33;;;12.07;;
52618;SDS011;38513;53.234;6.568;2022-09-09T06:09:31;16.02;;;11.77;;
52618;SDS011;38513;53.234;6.568;2022-09-09T06:11:57;19.63;;;11.43;;
52618;SDS011;38513;53.234;6.568;2022-09-09T06:14:23;16.27;;;10.82;;
52618;SDS011;38513;53.234;6.568;2022-09-09T06:16:50;18.08;;;11.10;;
52618;SDS011;38513;53.234;6.568;2022-09-09T06:19:22;16.67;;;10.75;;
52618;SDS011;38513;53.234;6.568;2022-09-09T06:21:51;18.33;;;11.45;;
52618;SDS011;38513;53.234;6.568;2022-09-09T06:24:17;15.75;;;11.00;;
52618;SDS011;38513;53.234;6.568;2022-09-09T06:26:45;16.05;;;10.48;;
52618;SDS011;38513;53.234;6.568;2022-09-09T06:29:11;14.52;;;10.50;;
52618;SDS011;38513;53.234;6.568;2022-09-09T06:31:37;16.70;;;10.30;;
52618;SDS011;38513;53.234;6.568;2022-09-09T06:34:04;13.77;;;9.25;;
52618;SDS011;38513;53.234;6.568;2022-09-09T06:36:31;14.55;;;10.15;;
52618;SDS011;38513;53.234;6.568;2022-09-09T06:38:58;15.07;;;9.87;;
52618;SDS011;38513;53.234;6.568;2022-09-09T06:41:26;15.30;;;9.70;;
52618;SDS011;38513;53.234;6.568;2022-09-09T06:43:53;12.98;;;9.02;;
52618;SDS011;38513;53.234;6.568;2022-09-09T06:46:27;13.70;;;9.20;;
52618;SDS011;38513;53.234;6.568;2022-09-09T06:48:55;12.82;;;9.20;;
52618;SDS011;38513;53.234;6.568;2022-09-09T06:51:24;13.30;;;8.90;;
52618;SDS011;38513;53.234;6.568;2022-09-09T06:53:51;13.20;;;9.27;;
52618;SDS011;38513;53.234;6.568;2022-09-09T06:56:26;13.30;;;9.30;;
52618;SDS011;38513;53.234;6.568;2022-09-09T06:59:00;13.57;;;9.02;;
52618;SDS011;38513;53.234;6.568;2022-09-09T07:01:28;12.97;;;8.73;;
52618;SDS011;38513;53.234;6.568;2022-09-09T07:03:56;12.93;;;8.55;;
52618;SDS011;38513;53.234;6.568;2022-09-09T07:06:33;11.80;;;8.27;;
52618;SDS011;38513;53.234;6.568;2022-09-09T07:09:04;12.30;;;8.43;;
52618;SDS011;38513;53.234;6.568;2022-09-09T07:11:36;11.73;;;7.72;;
52618;SDS011;38513;53.234;6.568;2022-09-09T07:14:02;12.75;;;7.95;;
52618;SDS011;38513;53.234;6.568;2022-09-09T07:16:28;11.32;;;7.13;;
52618;SDS011;38513;53.234;6.568;2022-09-09T07:18:56;11.00;;;7.57;;
52618;SDS011;38513;53.234;6.568;2022-09-09T07:21:28;11.57;;;7.87;;
52618;SDS011;38513;53.234;6.568;2022-09-09T07:23:58;11.07;;;7.80;;
52618;SDS011;38513;53.234;6.568;2022-09-09T07:26:28;12.20;;;7.40;;
52618;SDS011;38513;53.234;6.568;2022-09-09T07:28:56;11.43;;;6.93;;
52618;SDS011;38513;53.234;6.568;2022-09-09T07:31:23;10.27;;;7.32;;
52618;SDS011;38513;53.234;6.568;2022-09-09T07:33:51;10.68;;;7.43;;
52618;SDS011;38513;53.234;6.568;2022-09-09T07:36:20;13.55;;;7.78;;
52618;SDS011;38513;53.234;6.568;2022-09-09T07:38:56;11.10;;;7.20;;
52618;SDS011;38513;53.234;6.568;2022-09-09T07:41:31;11.32;;;6.95;;
52618;SDS011;38513;53.234;6.568;2022-09-09T07:43:59;10.88;;;7.20;;
52618;SDS011;38513;53.234;6.568;2022-09-09T07:46:26;10.15;;;6.70;;
52618;SDS011;38513;53.234;6.568;2022-09-09T07:48:53;11.50;;;7.00;;
52618;SDS011;38513;53.234;6.568;2022-09-09T07:51:21;11.77;;;6.93;;
52618;SDS011;38513;53.234;6.568;2022-09-09T07:53:47;11.35;;;7.07;;
52618;SDS011;38513;53.234;6.568;2022-09-09T07:56:15;10.43;;;6.57;;
52618;SDS011;38513;53.234;6.568;2022-09-09T07:58:48;9.88;;;6.10;;
52618;SDS011;38513;53.234;6.568;2022-09-09T08:01:16;10.68;;;6.63;;
52618;SDS011;38513;53.234;6.568;2022-09-09T08:03:43;11.93;;;6.20;;
52618;SDS011;38513;53.234;6.568;2022-09-09T08:06:10;10.52;;;6.22;;
52618;SDS011;38513;53.234;6.568;2022-09-09T08:08:37;10.98;;;6.53;;
52618;SDS011;38513;53.234;6.568;2022-09-09T08:11:08;10.23;;;6.18;;
52618;SDS011;38513;53.234;6.568;2022-09-09T08:13:35;10.23;;;6.00;;
52618;SDS011;38513;53.234;6.568;2022-09-09T08:16:12;9.85;;;5.82;;
52618;SDS011;38513;53.234;6.568;2022-09-09T08:18:38;9.45;;;5.38;;
52618;SDS011;38513;53.234;6.568;2022-09-09T08:21:15;9.82;;;5.88;;
52618;SDS011;38513;53.234;6.568;2022-09-09T08:23:42;10.68;;;5.80;;
52618;SDS011;38513;53.234;6.568;2022-09-09T08:26:11;11.20;;;5.93;;
52618;SDS011;38513;53.234;6.568;2022-09-09T08:28:38;8.82;;;5.43;;
52618;SDS011;38513;53.234;6.568;2022-09-09T08:33:55;10.77;;;6.75;;
52618;SDS011;38513;53.234;6.568;2022-09-09T08:36:22;10.35;;;5.88;;
52618;SDS011;38513;53.234;6.568;2022-09-09T08:38:49;9.52;;;5.13;;
52618;SDS011;38513;53.234;6.568;2022-09-09T08:41:22;8.82;;;5.05;;
52618;SDS011;38513;53.234;6.568;2022-09-09T08:43:58;10.00;;;5.10;;
52618;SDS011;38513;53.234;6.568;2022-09-09T08:46:37;8.07;;;4.97;;
52618;SDS011;38513;53.234;6.568;2022-09-09T08:51:51;9.50;;;4.82;;
52618;SDS011;38513;53.234;6.568;2022-09-09T08:54:23;9.60;;;4.23;;
52618;SDS011;38513;53.234;6.568;2022-09-09T08:56:49;8.43;;;4.33;;
52618;SDS011;38513;53.234;6.568;2022-09-09T08:59:17;9.95;;;3.90;;
52618;SDS011;38513;53.234;6.568;2022-09-09T09:12:22;8.90;;;4.00;;
52618;SDS011;38513;53.234;6.568;2022-09-09T09:14:48;9.27;;;4.23;;
52618;SDS011;38513;53.234;6.568;2022-09-09T09:17:17;10.50;;;4.50;;
52618;SDS011;38513;53.234;6.568;2022-09-09T09:19:44;10.75;;;4.57;;
52618;SDS011;38513;53.234;6.568;2022-09-09T09:22:14;8.32;;;4.10;;
52618;SDS011;38513;53.234;6.568;2022-09-09T09:24:49;9.27;;;4.32;;
52618;SDS011;38513;53.234;6.568;2022-09-09T09:27:27;8.48;;;4.00;;
52618;SDS011;38513;53.234;6.568;2022-09-09T09:29:56;10.00;;;4.15;;
52618;SDS011;38513;53.234;6.568;2022-09-09T09:32:23;7.38;;;4.03;;
52618;SDS011;38513;53.234;6.568;2022-09-09T09:34:57;9.25;;;4.72;;
52618;SDS011;38513;53.234;6.568;2022-09-09T09:37:29;9.77;;;4.40;;
52618;SDS011;38513;53.234;6.568;2022-09-09T09:39:56;8.93;;;3.90;;
52618;SDS011;38513;53.234;6.568;2022-09-09T09:42:22;9.73;;;4.20;;
52618;SDS011;38513;53.234;6.568;2022-09-09T09:44:48;10.25;;;4.10;;
52618;SDS011;38513;53.234;6.568;2022-09-09T09:47:15;10.15;;;4.07;;
52618;SDS011;38513;53.234;6.568;2022-09-09T09:49:53;10.15;;;4.28;;
52618;SDS011;38513;53.234;6.568;2022-09-09T09:52:24;10.77;;;3.95;;
52618;SDS011;38513;53.234;6.568;2022-09-09T09:54:54;11.15;;;4.20;;
52618;SDS011;38513;53.234;6.568;2022-09-09T09:57:28;10.30;;;4.05;;
52618;SDS011;38513;53.234;6.568;2022-09-09T10:02:36;10.23;;;3.60;;
52618;SDS011;38513;53.234;6.568;2022-09-09T10:05:04;9.13;;;4.07;;
52618;SDS011;38513;53.234;6.568;2022-09-09T10:07:31;12.10;;;4.00;;
52618;SDS011;38513;53.234;6.568;2022-09-09T10:09:58;11.25;;;3.90;;
52618;SDS011;38513;53.234;6.568;2022-09-09T10:20:04;12.75;;;3.70;;
52618;SDS011;38513;53.234;6.568;2022-09-09T10:22:36;10.73;;;3.33;;
52618;SDS011;38513;53.234;6.568;2022-09-09T10:27:41;11.35;;;3.15;;
52618;SDS011;38513;53.234;6.568;2022-09-09T10:32:48;11.93;;;3.20;;
52618;SDS011;38513;53.234;6.568;2022-09-09T10:35:22;11.18;;;3.13;;
52618;SDS011;38513;53.234;6.568;2022-09-09T10:51:52;9.38;;;2.67;;
52618;SDS011;38513;53.234;6.568;2022-09-09T10:56:22;8.02;;;2.08;;
52618;SDS011;38513;53.234;6.568;2022-09-09T10:58:53;9.60;;;2.50;;
52618;SDS011;38513;53.234;6.568;2022-09-09T11:04:32;8.77;;;2.65;;
52618;SDS011;38513;53.234;6.568;2022-09-09T11:06:57;10.73;;;2.90;;
52618;SDS011;38513;53.234;6.568;2022-09-09T11:09:30;9.73;;;2.85;;
52618;SDS011;38513;53.234;6.568;2022-09-09T11:15:12;8.95;;;2.20;;
52618;SDS011;38513;53.234;6.568;2022-09-09T11:43:53;8.80;;;2.20;;
52618;SDS011;38513;53.234;6.568;2022-09-09T11:46:20;8.52;;;2.33;;
52618;SDS011;38513;53.234;6.568;2022-09-09T11:48:58;7.22;;;1.77;;
52618;SDS011;38513;53.234;6.568;2022-09-09T11:51:28;7.00;;;2.00;;
52618;SDS011;38513;53.234;6.568;2022-09-09T11:54:03;7.50;;;2.00;;
52618;SDS011;38513;53.234;6.568;2022-09-09T11:56:47;7.78;;;2.28;;
52618;SDS011;38513;53.234;6.568;2022-09-09T12:02:02;8.00;;;2.83;;
52618;SDS011;38513;53.234;6.568;2022-09-09T12:04:30;8.60;;;2.00;;
52618;SDS011;38513;53.234;6.568;2022-09-09T12:09:33;7.70;;;2.20;;
52618;SDS011;38513;53.234;6.568;2022-09-09T12:19:40;9.25;;;1.90;;
52618;SDS011;38513;53.234;6.568;2022-09-09T12:27:17;7.47;;;1.70;;
52618;SDS011;38513;53.234;6.568;2022-09-09T12:32:22;8.07;;;1.90;;
52618;SDS011;38513;53.234;6.568;2022-09-09T12:39:51;9.15;;;1.90;;
52618;SDS011;38513;53.234;6.568;2022-09-09T12:42:19;7.80;;;1.80;;
52618;SDS011;38513;53.234;6.568;2022-09-09T12:44:52;8.98;;;1.80;;
52618;SDS011;38513;53.234;6.568;2022-09-09T12:47:19;8.05;;;1.95;;
52618;SDS011;38513;53.234;6.568;2022-09-09T12:49:46;7.45;;;1.60;;
52618;SDS011;38513;53.234;6.568;2022-09-09T12:52:28;8.18;;;1.90;;
52618;SDS011;38513;53.234;6.568;2022-09-09T12:54:59;8.05;;;1.73;;
52618;SDS011;38513;53.234;6.568;2022-09-09T12:57:29;7.43;;;1.80;;
52618;SDS011;38513;53.234;6.568;2022-09-09T13:00:08;7.68;;;1.65;;
52618;SDS011;38513;53.234;6.568;2022-09-09T13:02:44;8.30;;;1.60;;
52618;SDS011;38513;53.234;6.568;2022-09-09T13:05:20;7.50;;;1.70;;
52618;SDS011;38513;53.234;6.568;2022-09-09T13:07:49;8.32;;;2.17;;
52618;SDS011;38513;53.234;6.568;2022-09-09T13:10:26;7.63;;;1.98;;
52618;SDS011;38513;53.234;6.568;2022-09-09T13:12:55;6.57;;;1.70;;
52618;SDS011;38513;53.234;6.568;2022-09-09T13:15:26;8.82;;;2.08;;
52618;SDS011;38513;53.234;6.568;2022-09-09T13:17:55;8.43;;;1.90;;
52618;SDS011;38513;53.234;6.568;2022-09-09T13:20:30;8.10;;;1.98;;
52618;SDS011;38513;53.234;6.568;2022-09-09T13:22:57;8.48;;;1.98;;
52618;SDS011;38513;53.234;6.568;2022-09-09T13:25:27;10.48;;;2.00;;
52618;SDS011;38513;53.234;6.568;2022-09-09T13:35:49;8.70;;;1.95;;
52618;SDS011;38513;53.234;6.568;2022-09-09T13:38:16;7.17;;;2.10;;
52618;SDS011;38513;53.234;6.568;2022-09-09T13:40:52;8.45;;;2.10;;
52618;SDS011;38513;53.234;6.568;2022-09-09T13:43:21;9.93;;;2.13;;
52618;SDS011;38513;53.234;6.568;2022-09-09T13:45:58;11.80;;;4.30;;
52618;SDS011;38513;53.234;6.568;2022-09-09T13:48:28;10.27;;;2.60;;
52618;SDS011;38513;53.234;6.568;2022-09-09T13:51:00;9.07;;;2.00;;
52618;SDS011;38513;53.234;6.568;2022-09-09T13:53:31;8.43;;;1.75;;
52618;SDS011;38513;53.234;6.568;2022-09-09T13:55:57;9.57;;;2.15;;
52618;SDS011;38513;53.234;6.568;2022-09-09T13:58:26;8.52;;;2.00;;
52618;SDS011;38513;53.234;6.568;2022-09-09T14:00:53;9.02;;;1.90;;
52618;SDS011;38513;53.234;6.568;2022-09-09T14:03:19;7.60;;;1.70;;
52618;SDS011;38513;53.234;6.568;2022-09-09T14:05:47;6.00;;;1.70;;
52618;SDS011;38513;53.234;6.568;2022-09-09T14:08:23;8.05;;;1.60;;
52618;SDS011;38513;53.234;6.568;2022-09-09T14:10:50;6.03;;;1.35;;
52618;SDS011;38513;53.234;6.568;2022-09-09T14:13:17;5.55;;;1.30;;
52618;SDS011;38513;53.234;6.568;2022-09-09T14:15:43;7.10;;;1.48;;
52618;SDS011;38513;53.234;6.568;2022-09-09T14:18:10;7.23;;;1.40;;
52618;SDS011;38513;53.234;6.568;2022-09-09T14:20:37;6.55;;;1.65;;
52618;SDS011;38513;53.234;6.568;2022-09-09T14:23:03;5.40;;;1.23;;
52618;SDS011;38513;53.234;6.568;2022-09-09T14:25:30;6.25;;;1.30;;
52618;SDS011;38513;53.234;6.568;2022-09-09T14:27:56;6.47;;;1.30;;
52618;SDS011;38513;53.234;6.568;2022-09-09T14:30:22;4.40;;;1.15;;
52618;SDS011;38513;53.234;6.568;2022-09-09T14:32:48;5.32;;;1.35;;
52618;SDS011;38513;53.234;6.568;2022-09-09T14:35:14;6.40;;;1.60;;
52618;SDS011;38513;53.234;6.568;2022-09-09T14:37:42;5.82;;;1.27;;
52618;SDS011;38513;53.234;6.568;2022-09-09T14:40:09;8.63;;;1.35;;
52618;SDS011;38513;53.234;6.568;2022-09-09T14:42:36;10.15;;;2.40;;
52618;SDS011;38513;53.234;6.568;2022-09-09T14:45:03;5.15;;;1.40;;
52618;SDS011;38513;53.234;6.568;2022-09-09T14:47:31;5.38;;;1.30;;
52618;SDS011;38513;53.234;6.568;2022-09-09T14:50:01;6.25;;;1.25;;
52618;SDS011;38513;53.234;6.568;2022-09-09T14:52:29;4.05;;;1.00;;
52618;SDS011;38513;53.234;6.568;2022-09-09T14:54:56;3.85;;;0.80;;
52618;SDS011;38513;53.234;6.568;2022-09-09T14:57:28;4.38;;;0.90;;
52618;SDS011;38513;53.234;6.568;2022-09-09T15:00:01;3.58;;;0.73;;
52618;SDS011;38513;53.234;6.568;2022-09-09T15:02:28;2.58;;;0.60;;
52618;SDS011;38513;53.234;6.568;2022-09-09T15:04:55;2.75;;;0.75;;
52618;SDS011;38513;53.234;6.568;2022-09-09T15:07:23;6.45;;;1.00;;
52618;SDS011;38513;53.234;6.568;2022-09-09T15:09:49;5.45;;;1.00;;
52618;SDS011;38513;53.234;6.568;2022-09-09T15:12:20;5.40;;;1.45;;
52618;SDS011;38513;53.234;6.568;2022-09-09T15:14:48;6.25;;;1.70;;
52618;SDS011;38513;53.234;6.568;2022-09-09T15:17:15;5.45;;;1.10;;
52618;SDS011;38513;53.234;6.568;2022-09-09T15:19:42;5.03;;;1.10;;
52618;SDS011;38513;53.234;6.568;2022-09-09T15:22:08;5.70;;;1.25;;
52618;SDS011;38513;53.234;6.568;2022-09-09T15:24:34;5.50;;;1.60;;
52618;SDS011;38513;53.234;6.568;2022-09-09T15:27:01;6.30;;;1.48;;
52618;SDS011;38513;53.234;6.568;2022-09-09T15:29:27;5.53;;;1.35;;
52618;SDS011;38513;53.234;6.568;2022-09-09T15:31:55;6.80;;;1.80;;
52618;SDS011;38513;53.234;6.568;2022-09-09T15:34:21;6.85;;;1.80;;
52618;SDS011;38513;53.234;6.568;2022-09-09T15:36:47;5.25;;;1.50;;
52618;SDS011;38513;53.234;6.568;2022-09-09T15:39:15;5.57;;;1.60;;
52618;SDS011;38513;53.234;6.568;2022-09-09T15:41:41;6.80;;;1.70;;
52618;SDS011;38513;53.234;6.568;2022-09-09T15:44:08;8.67;;;1.90;;
52618;SDS011;38513;53.234;6.568;2022-09-09T15:46:42;5.97;;;1.50;;
52618;SDS011;38513;53.234;6.568;2022-09-09T15:51:47;7.53;;;1.67;;
52618;SDS011;38513;53.234;6.568;2022-09-09T15:54:14;6.63;;;1.60;;
52618;SDS011;38513;53.234;6.568;2022-09-09T15:56:42;7.60;;;1.55;;
52618;SDS011;38513;53.234;6.568;2022-09-09T15:59:08;6.35;;;1.55;;
52618;SDS011;38513;53.234;6.568;2022-09-09T16:01:35;6.15;;;1.65;;
52618;SDS011;38513;53.234;6.568;2022-09-09T16:04:01;4.65;;;1.30;;
52618;SDS011;38513;53.234;6.568;2022-09-09T16:06:28;5.50;;;1.52;;
52618;SDS011;38513;53.234;6.568;2022-09-09T16:08:55;6.25;;;1.80;;
52618;SDS011;38513;53.234;6.568;2022-09-09T16:11:22;8.63;;;4.10;;
52618;SDS011;38513;53.234;6.568;2022-09-09T16:13:59;5.53;;;1.70;;
52618;SDS011;38513;53.234;6.568;2022-09-09T16:16:29;10.93;;;2.60;;
52618;SDS011;38513;53.234;6.568;2022-09-09T16:18:57;7.15;;;3.03;;
52618;SDS011;38513;53.234;6.568;2022-09-09T16:21:28;5.87;;;1.90;;
52618;SDS011;38513;53.234;6.568;2022-09-09T16:23:54;5.50;;;1.83;;
52618;SDS011;38513;53.234;6.568;2022-09-09T16:26:21;6.38;;;1.80;;
52618;SDS011;38513;53.234;6.568;2022-09-09T16:28:47;6.18;;;2.22;;
52618;SDS011;38513;53.234;6.568;2022-09-09T16:31:21;7.72;;;1.70;;
52618;SDS011;38513;53.234;6.568;2022-09-09T16:33:48;6.10;;;1.60;;
52618;SDS011;38513;53.234;6.568;2022-09-09T16:36:37;5.10;;;1.40;;
52618;SDS011;38513;53.234;6.568;2022-09-09T16:39:03;6.07;;;1.60;;
52618;SDS011;38513;53.234;6.568;2022-09-09T16:41:30;5.68;;;1.45;;
52618;SDS011;38513;53.234;6.568;2022-09-09T16:44:00;4.78;;;1.17;;
52618;SDS011;38513;53.234;6.568;2022-09-09T16:46:28;6.55;;;1.77;;
52618;SDS011;38513;53.234;6.568;2022-09-09T16:48:55;5.60;;;1.40;;
52618;SDS011;38513;53.234;6.568;2022-09-09T16:51:27;5.45;;;1.42;;
52618;SDS011;38513;53.234;6.568;2022-09-09T16:53:54;7.07;;;1.70;;
52618;SDS011;38513;53.234;6.568;2022-09-09T16:56:22;5.95;;;1.40;;
52618;SDS011;38513;53.234;6.568;2022-09-09T16:58:53;6.53;;;1.42;;
52618;SDS011;38513;53.234;6.568;2022-09-09T17:01:24;6.47;;;1.73;;
52618;SDS011;38513;53.234;6.568;2022-09-09T17:03:54;6.47;;;1.60;;
52618;SDS011;38513;53.234;6.568;2022-09-09T17:06:34;6.07;;;1.60;;
52618;SDS011;38513;53.234;6.568;2022-09-09T17:09:03;6.55;;;1.60;;
52618;SDS011;38513;53.234;6.568;2022-09-09T17:11:29;6.47;;;1.65;;
52618;SDS011;38513;53.234;6.568;2022-09-09T17:13:56;6.80;;;1.77;;
52618;SDS011;38513;53.234;6.568;2022-09-09T17:16:27;5.88;;;1.70;;
52618;SDS011;38513;53.234;6.568;2022-09-09T17:18:57;6.45;;;1.70;;
52618;SDS011;38513;53.234;6.568;2022-09-09T17:21:30;6.15;;;1.80;;
52618;SDS011;38513;53.234;6.568;2022-09-09T17:23:57;6.57;;;1.77;;
52618;SDS011;38513;53.234;6.568;2022-09-09T17:26:24;6.10;;;2.03;;
52618;SDS011;38513;53.234;6.568;2022-09-09T17:28:52;7.18;;;2.95;;
52618;SDS011;38513;53.234;6.568;2022-09-09T17:31:18;7.28;;;3.00;;
52618;SDS011;38513;53.234;6.568;2022-09-09T17:33:49;6.38;;;1.70;;
52618;SDS011;38513;53.234;6.568;2022-09-09T17:38:45;5.65;;;1.80;;
52618;SDS011;38513;53.234;6.568;2022-09-09T17:41:16;4.97;;;1.60;;